createdAt,value
2023-02-04T00:02:07.398Z,10.10
2023-02-04T00:07:45.750Z,9.40
2023-02-04T00:10:35.285Z,9.50
2023-02-04T00:13:03.318Z,8.40
2023-02-04T00:15:30.498Z,7.30
2023-02-04T00:17:57.437Z,9.80
2023-02-04T00:20:24.197Z,11.20
2023-02-04T00:22:51.339Z,9.90
2023-02-04T00:25:18.336Z,11.70
2023-02-04T00:27:45.352Z,13.70
2023-02-04T00:30:13.193Z,11.90
2023-02-04T00:32:41.034Z,13.80
2023-02-04T00:35:08.800Z,18.00
2023-02-04T00:37:35.645Z,18.40
2023-02-04T00:40:05.091Z,17.30
2023-02-04T00:42:32.104Z,19.60
2023-02-04T00:44:59.125Z,15.90
2023-02-04T00:47:26.026Z,17.20
2023-02-04T00:49:52.918Z,19.70
2023-02-04T00:52:19.856Z,20.20
2023-02-04T00:54:47.511Z,19.60
2023-02-04T00:57:14.525Z,19.40
2023-02-04T00:59:41.597Z,19.30
2023-02-04T01:02:08.592Z,18.10
2023-02-04T01:04:35.471Z,22.30
2023-02-04T01:07:02.436Z,18.40
2023-02-04T01:37:18.574Z,14.80
2023-02-04T01:39:45.981Z,13.90
2023-02-04T01:42:13.762Z,15.10
2023-02-04T01:44:40.911Z,15.60
2023-02-04T01:47:09.410Z,13.20
2023-02-04T01:49:36.142Z,13.20
2023-02-04T01:52:04.054Z,11.40
2023-02-04T01:54:31.804Z,10.30
2023-02-04T01:56:59.832Z,13.40
2023-02-04T01:59:27.082Z,11.50
2023-02-04T02:01:54.161Z,10.70
2023-02-04T02:04:31.326Z,8.00
2023-02-04T02:07:04.989Z,9.30
2023-02-04T02:09:33.286Z,8.60
2023-02-04T02:12:02.088Z,10.30
2023-02-04T02:14:29.129Z,9.10
2023-02-04T02:16:57.706Z,8.30
2023-02-04T02:19:33.620Z,10.70
2023-02-04T02:22:08.264Z,12.70
2023-02-04T02:24:35.373Z,11.10
2023-02-04T02:27:07.685Z,7.10
2023-02-04T02:29:36.520Z,7.50
2023-02-04T02:32:04.925Z,7.20
2023-02-04T02:34:33.219Z,6.40
2023-02-04T02:37:03.523Z,7.90
2023-02-04T02:39:30.349Z,10.60
2023-02-04T02:41:58.751Z,8.60
2023-02-04T02:44:26.427Z,9.30
2023-02-04T02:46:54.712Z,7.30
2023-02-04T02:49:25.767Z,8.70
2023-02-04T02:51:53.458Z,13.00
2023-02-04T02:54:30.226Z,10.20
2023-02-04T02:56:59.657Z,11.60
2023-02-04T02:59:27.118Z,11.00
2023-02-04T03:02:00.054Z,12.20
2023-02-04T03:04:29.797Z,11.60
2023-02-04T03:06:57.048Z,13.90
2023-02-04T03:09:26.331Z,14.30
2023-02-04T03:11:53.628Z,14.00
2023-02-04T03:14:21.968Z,13.80
2023-02-04T03:16:48.940Z,18.60
2023-02-04T03:19:15.914Z,15.00
2023-02-04T03:21:47.600Z,14.90
2023-02-04T03:24:14.713Z,15.50
2023-02-04T03:26:41.797Z,15.90
2023-02-04T03:29:09.686Z,14.20
2023-02-04T03:31:37.845Z,15.90
2023-02-04T03:34:04.965Z,13.80
2023-02-04T03:36:32.182Z,14.40
2023-02-04T03:38:59.036Z,14.90
2023-02-04T03:41:28.155Z,17.00
2023-02-04T03:43:55.732Z,16.20
2023-02-04T03:46:25.395Z,14.60
2023-02-04T03:48:52.463Z,14.40
2023-02-04T03:51:19.426Z,15.70
2023-02-04T03:53:46.295Z,14.10
2023-02-04T03:56:13.170Z,14.40
2023-02-04T03:58:40.256Z,14.10
2023-02-04T04:01:07.344Z,15.00
2023-02-04T04:03:33.909Z,16.70
2023-02-04T04:06:00.965Z,15.50
2023-02-04T04:08:27.752Z,15.00
2023-02-04T04:10:54.359Z,12.10
2023-02-04T04:13:21.324Z,14.80
2023-02-04T04:15:47.988Z,13.60
2023-02-04T04:18:19.277Z,13.00
2023-02-04T04:20:46.214Z,12.00
2023-02-04T04:23:13.004Z,12.50
2023-02-04T04:25:39.965Z,13.70
2023-02-04T04:28:07.075Z,12.80
2023-02-04T04:30:34.339Z,12.40
2023-02-04T04:33:01.535Z,13.50
2023-02-04T04:35:28.770Z,11.70
2023-02-04T04:37:55.857Z,14.60
2023-02-04T04:40:22.849Z,15.20
2023-02-04T04:42:49.965Z,14.60
2023-02-04T04:45:17.049Z,13.40
2023-02-04T04:47:43.678Z,12.20
2023-02-04T04:50:11.030Z,13.10
2023-02-04T04:52:38.047Z,15.00
2023-02-04T04:55:06.271Z,12.40
2023-02-04T04:57:33.159Z,10.80
2023-02-04T05:00:00.310Z,15.30
2023-02-04T05:02:27.323Z,15.20
2023-02-04T05:04:54.531Z,12.30
2023-02-04T05:07:21.466Z,18.40
2023-02-04T05:09:48.639Z,15.20
2023-02-04T05:12:15.521Z,14.40
2023-02-04T05:14:42.312Z,13.90
2023-02-04T05:17:09.046Z,14.80
2023-02-04T05:19:36.533Z,12.90
2023-02-04T05:22:03.412Z,16.40
2023-02-04T05:24:30.496Z,17.20
2023-02-04T05:26:57.431Z,16.50
2023-02-04T05:29:24.445Z,16.00
2023-02-04T05:31:51.572Z,15.10
2023-02-04T05:34:20.642Z,16.90
2023-02-04T05:36:47.765Z,15.50
2023-02-04T05:39:14.760Z,21.60
2023-02-04T05:41:41.767Z,15.80
2023-02-04T05:44:08.976Z,18.20
2023-02-04T05:46:36.652Z,12.90
2023-02-04T05:49:03.923Z,15.30
2023-02-04T05:51:31.059Z,16.60
2023-02-04T05:53:58.429Z,16.20
2023-02-04T05:56:25.357Z,15.40
2023-02-04T05:58:52.322Z,16.60
2023-02-04T06:01:19.651Z,17.10
2023-02-04T06:03:46.460Z,18.90
2023-02-04T06:06:23.376Z,18.60
2023-02-04T06:08:50.496Z,12.80
2023-02-04T06:14:31.771Z,15.20
2023-02-04T06:16:59.545Z,15.50
2023-02-04T06:19:26.609Z,14.40
2023-02-04T06:21:53.707Z,15.20
2023-02-04T06:24:20.813Z,13.70
2023-02-04T06:26:48.875Z,20.00
2023-02-04T06:29:15.974Z,18.80
2023-02-04T06:31:44.221Z,17.00
2023-02-04T06:37:51.221Z,13.60
2023-02-04T06:40:18.130Z,14.00
2023-02-04T06:42:45.146Z,17.60
2023-02-04T06:45:12.346Z,14.50
2023-02-04T06:54:17.359Z,15.10
2023-02-04T07:00:13.080Z,14.30
2023-02-04T07:02:42.177Z,17.10
2023-02-04T07:05:12.345Z,11.90
2023-02-04T07:07:40.032Z,14.60
2023-02-04T07:13:44.731Z,13.20
2023-02-04T07:16:41.007Z,12.40
2023-02-04T07:45:39.894Z,13.10
2023-02-04T07:48:11.608Z,13.00
2023-02-04T07:50:38.620Z,15.20
2023-02-04T07:53:05.541Z,16.70
2023-02-04T07:55:32.384Z,15.20
2023-02-04T07:57:59.674Z,18.50
2023-02-04T08:00:26.585Z,12.10
2023-02-04T08:02:53.462Z,12.40
2023-02-04T08:05:20.421Z,16.50
2023-02-04T08:08:33.945Z,14.00
2023-02-04T08:11:21.036Z,12.60
2023-02-04T08:14:08.408Z,15.30
2023-02-04T08:16:35.428Z,16.50
2023-02-04T08:19:02.045Z,18.10
2023-02-04T08:21:28.952Z,17.70
2023-02-04T08:23:56.132Z,14.10
2023-02-04T08:40:21.475Z,13.80
2023-02-04T08:42:52.487Z,13.50
2023-02-04T08:45:24.681Z,14.40
2023-02-04T08:48:02.943Z,12.70
2023-02-04T08:50:30.802Z,16.00
2023-02-04T08:52:59.642Z,21.40
2023-02-04T09:25:31.957Z,15.80
2023-02-04T09:28:01.085Z,13.00
2023-02-04T09:30:30.126Z,16.40
2023-02-04T09:32:57.284Z,19.60
2023-02-04T09:35:25.673Z,10.80
2023-02-04T09:37:57.452Z,13.10
2023-02-04T09:40:27.113Z,15.10
2023-02-04T09:42:56.291Z,16.70
2023-02-04T09:45:46.367Z,11.40
2023-02-04T09:56:32.818Z,10.10
2023-02-04T09:59:00.118Z,11.20
2023-02-04T10:01:30.013Z,11.10
2023-02-04T10:04:01.335Z,15.40
2023-02-04T10:06:28.134Z,12.90
2023-02-04T10:12:33.170Z,15.00
2023-02-04T10:18:48.034Z,18.30
2023-02-04T10:21:28.526Z,16.80
2023-02-04T10:24:01.566Z,21.10
2023-02-04T10:26:32.010Z,11.30
2023-02-04T10:29:04.963Z,9.20
2023-02-04T10:31:53.152Z,22.60
2023-02-04T10:34:56.031Z,15.90
2023-02-04T10:37:22.991Z,16.10
2023-02-04T10:58:35.082Z,13.90
2023-02-04T11:01:02.080Z,13.00
2023-02-04T11:03:30.237Z,12.60
2023-02-04T11:06:00.259Z,13.70
2023-02-04T11:08:37.131Z,12.40
2023-02-04T11:11:06.309Z,17.30
2023-02-04T11:14:03.815Z,18.00
2023-02-04T11:16:35.015Z,17.40
2023-02-04T11:28:59.053Z,16.30
2023-02-04T11:31:52.838Z,13.20
2023-02-04T11:34:19.745Z,11.80
2023-02-04T11:40:25.700Z,13.40
2023-02-04T11:43:13.090Z,11.80
2023-02-04T11:46:09.720Z,11.60
2023-02-04T11:49:24.905Z,11.00
2023-02-04T12:00:31.826Z,8.00
2023-02-04T12:03:42.280Z,7.70
2023-02-04T12:06:39.707Z,8.60
2023-02-04T12:16:05.333Z,9.00
2023-02-04T12:33:37.284Z,14.10
2023-02-04T12:54:14.445Z,9.60
2023-02-04T12:56:45.896Z,10.40
2023-02-04T13:36:59.067Z,13.10
2023-02-04T13:39:30.868Z,14.50
2023-02-04T13:41:57.818Z,11.70
2023-02-04T13:44:27.000Z,14.40
2023-02-04T13:46:54.058Z,9.40
2023-02-04T13:49:21.343Z,11.10
2023-02-04T13:51:47.944Z,10.20
2023-02-04T13:54:14.897Z,8.80
2023-02-04T13:56:41.684Z,10.40
2023-02-04T13:59:08.577Z,13.80
2023-02-04T14:01:35.726Z,10.10
2023-02-04T14:04:02.961Z,18.70
2023-02-04T14:06:33.857Z,12.30
2023-02-04T14:09:00.975Z,11.50
2023-02-04T14:11:35.333Z,12.30
2023-02-04T14:14:02.248Z,9.90
2023-02-04T14:16:29.075Z,13.90
2023-02-04T14:18:55.586Z,18.40
2023-02-04T14:21:25.222Z,20.60
2023-02-04T14:31:48.858Z,11.00
2023-02-04T14:34:47.333Z,11.40
2023-02-04T14:52:20.980Z,16.30
2023-02-04T15:10:22.550Z,13.40
2023-02-04T16:13:57.664Z,11.00
2023-02-04T16:59:44.361Z,12.80
2023-02-04T17:03:20.443Z,11.90
2023-02-04T17:11:21.157Z,12.50
2023-02-04T17:21:48.740Z,13.00
2023-02-04T17:28:00.333Z,13.40
2023-02-04T17:38:06.012Z,12.10
2023-02-04T17:40:57.400Z,17.20
2023-02-04T17:43:26.852Z,13.10
2023-02-04T18:07:11.940Z,11.80
2023-02-04T18:39:30.449Z,13.80
2023-02-04T18:41:59.278Z,12.50
2023-02-04T18:44:40.593Z,16.20
2023-02-04T18:50:49.612Z,21.10
2023-02-04T18:53:26.755Z,15.40
2023-02-04T18:55:59.877Z,18.00
2023-02-04T18:58:38.716Z,14.60
2023-02-04T19:01:16.909Z,15.10
2023-02-04T19:04:03.851Z,15.30
2023-02-04T19:06:37.636Z,16.90
2023-02-04T19:09:24.745Z,17.80
2023-02-04T19:12:22.422Z,16.20
2023-02-04T20:33:07.093Z,19.00
2023-02-04T20:40:28.464Z,22.20
2023-02-04T20:55:12.089Z,30.90
2023-02-04T20:58:53.689Z,21.50
2023-02-04T21:02:48.199Z,15.70
2023-02-04T21:06:24.336Z,17.40
2023-02-04T21:10:11.085Z,17.10
2023-02-04T21:13:48.109Z,18.70
2023-02-04T21:17:27.189Z,21.30
2023-02-04T21:21:20.150Z,23.60
2023-02-04T21:25:05.101Z,22.30
2023-02-04T22:13:49.161Z,15.40
2023-02-04T22:17:22.044Z,17.00
2023-02-04T22:21:01.194Z,15.60
2023-02-04T22:24:37.111Z,19.20
2023-02-04T22:28:36.212Z,18.20
2023-02-04T22:31:56.098Z,17.80
2023-02-04T22:38:29.987Z,18.70
2023-02-04T22:40:59.089Z,19.20
2023-02-04T22:43:28.190Z,15.90
2023-02-04T22:45:56.685Z,17.20
2023-02-04T22:48:25.323Z,18.70
2023-02-04T22:50:55.618Z,20.30
2023-02-04T22:53:24.507Z,22.30
2023-02-04T22:55:53.000Z,20.50
2023-02-04T22:58:21.540Z,19.60
2023-02-04T23:00:50.060Z,19.60
2023-02-04T23:03:18.438Z,19.00
2023-02-04T23:05:50.688Z,12.70
2023-02-04T23:08:20.736Z,14.40
2023-02-04T23:10:50.539Z,13.00
